Thunder radar more information blitzortung!


Löydät sääaseman tiedot myös:

European Weather Network

Finland Weather Exchange

Weather Underground

AWEKAS



Weather Underground säähistoriasivu

Päivittäin yhteenveto Elokuu 24, 2017 Yksiköt:  Englantilaiset    Metriset   Molemmat
« Edellinen Päivä
Seuraava Päivä »
Päivittäin Viikoittain Kuukausittain Vuosittain Mukautettu
  Korkea: Matala: Keskiarvo:
Lämpötila: TemperatureC °F 5.4 °F 10.7 °F
Kastepiste: DewpointC °F 4.2 °F 7.3 °F
Kosteus: Humidity % 58 % 79 %
Tuulen nopeus: WindSpeedKMH mph 0.0 mph 1 mph
Tuulenpuuska: WindSpeedGustKMH mph - -
Tuuli:- - NW
Ilmanpaine: PressurehPa in 1005.6 in -
Sade: 0.0 in    
Historical Graphs
 
 
Taulukkotiedot Elokuu 24, 2017
Aika Lämpötila Kastepiste Ilmanpaine Tuuli Tuulen nopeus Tuulenpuuska Kosteus Sademäärä (tunneittain)
TemperatureC °F DewpointC °F PressurehPa in Calm     Humidity % HourlyPrecipMM in
00:00 9.4 °F 7.8 °F 1012.8 in Calm     90 % 0.0 in
00:15 9.3 °F 7.8 °F 1012.8 in Calm   1.6 mph 90 % 0.0 in
00:30 9.3 °F 7.9 °F 1012.8 in Calm     91 % 0.0 in
00:45 9.3 °F 7.7 °F 1012.4 in Calm     90 % 0.0 in
01:00 9.3 °F 7.7 °F 1012.4 in Calm   3.2 mph 90 % 0.0 in
01:15 9.3 °F 7.7 °F 1012.4 in Calm   1.6 mph 90 % 0.0 in
01:30 9.2 °F 7.6 °F 1012.1 in Calm   1.6 mph 90 % 0.0 in
01:45 9.1 °F 7.7 °F 1012.4 in Calm   4.8 mph 91 % 0.0 in
02:00 9.0 °F 7.6 °F 1012.4 in WNW 1.6 mph 4.8 mph 91 % 0.0 in
02:15 8.9 °F 7.6 °F 1012.1 in Calm   3.2 mph 91 % 0.0 in
02:30 8.8 °F 7.4 °F 1012.1 in Calm   4.8 mph 91 % 0.0 in
02:45 8.7 °F 7.3 °F 1012.1 in Calm   3.2 mph 91 % 0.0 in
03:00 8.6 °F 7.2 °F 1011.7 in Calm   1.6 mph 91 % 0.0 in
03:15 8.5 °F 7.1 °F 1011.7 in Calm   1.6 mph 91 % 0.0 in
03:30 8.4 °F 7.2 °F 1011.7 in Calm     92 % 0.0 in
03:45 8.2 °F 6.9 °F 1011.7 in Calm     92 % 0.0 in
04:15 7.6 °F 6.5 °F 1011.4 in Calm   4.8 mph 93 % 0.0 in
04:30 7.4 °F 6.5 °F 1011.4 in Calm   3.2 mph 94 % 0.0 in
04:45 7.2 °F 6.3 °F 1011.4 in Calm     94 % 0.0 in
05:00 7.1 °F 6.2 °F 1011.4 in Calm     94 % 0.0 in
05:15 7.1 °F 6.4 °F 1011.4 in Calm     95 % 0.0 in
05:30 7.3 °F 6.5 °F 1011.1 in Calm   1.6 mph 95 % 0.0 in
05:45 7.5 °F 6.8 °F 1011.1 in Calm     95 % 0.0 in
06:00 7.7 °F 6.9 °F 1011.1 in Calm   1.6 mph 95 % 0.0 in
06:15 7.8 °F 7.2 °F 1010.7 in Calm     96 % 0.0 in
06:30 8.1 °F 7.5 °F 1010.7 in Calm   1.6 mph 96 % 0.0 in
06:45 8.4 °F 7.8 °F 1010.4 in Calm   1.6 mph 96 % 0.0 in
07:00 8.7 °F 8.1 °F 1010.4 in Calm   4.8 mph 96 % 0.0 in
07:15 9.0 °F 8.4 °F 1010.0 in Calm   4.8 mph 96 % 0.0 in
07:30 9.2 °F 8.4 °F 1010.0 in NW 1.6 mph 8.0 mph 95 % 0.0 in
07:45 9.3 °F 8.4 °F 1010.0 in NW 1.6 mph 8.0 mph 94 % 0.0 in
08:00 9.3 °F 8.3 °F 1010.0 in NW 1.6 mph 11.3 mph 93 % 0.0 in
08:15 9.3 °F 8.1 °F 1009.7 in NW 1.6 mph 8.0 mph 92 % 0.0 in
08:30 9.4 °F 8.2 °F 1009.7 in NW 1.6 mph 9.7 mph 92 % 0.0 in
08:45 9.7 °F 8.3 °F 1009.7 in NW 1.6 mph 8.0 mph 91 % 0.0 in
09:00 10.1 °F 8.5 °F 1009.4 in Calm   4.8 mph 90 % 0.0 in
09:15 10.6 °F 8.7 °F 1009.4 in NNW 1.6 mph 8.0 mph 88 % 0.0 in
09:30 10.8 °F 8.9 °F 1009.4 in North 1.6 mph 6.4 mph 88 % 0.0 in
10:00 11.2 °F 8.6 °F 1009.4 in NNW 1.6 mph 9.7 mph 84 % 0.0 in
10:15 11.7 °F 8.7 °F 1009.0 in NNE 1.6 mph 4.8 mph 82 % 0.0 in
10:30 12.1 °F 9.1 °F 1009.0 in NW 1.6 mph 11.3 mph 82 % 0.0 in
10:45 12.7 °F 9.7 °F 1009.0 in Calm   6.4 mph 82 % 0.0 in
11:00 13.6 °F 9.8 °F 1009.0 in Calm   8.0 mph 78 % 0.0 in
11:15 13.9 °F 9.4 °F 1008.7 in Calm   4.8 mph 74 % 0.0 in
11:30 13.9 °F 8.6 °F 1008.7 in NW 3.2 mph 12.9 mph 70 % 0.0 in
11:45 13.6 °F 8.4 °F 1008.7 in NW 1.6 mph 8.0 mph 71 % 0.0 in
12:00 13.7 °F 8.9 °F 1008.4 in NW 3.2 mph 14.5 mph 73 % 0.0 in
12:15 13.2 °F 8.8 °F 1008.4 in NW 3.2 mph 9.7 mph 75 % 0.0 in
12:30 13.2 °F 7.8 °F 1008.0 in NW 3.2 mph 9.7 mph 70 % 0.0 in
12:45 13.8 °F 7.8 °F 1008.0 in North 3.2 mph 9.7 mph 67 % 0.0 in
13:00 13.5 °F 8.1 °F 1008.0 in Calm   4.8 mph 70 % 0.0 in
13:15 14.2 °F 8.1 °F 1007.7 in NW 1.6 mph 11.3 mph 67 % 0.0 in
13:30 13.9 °F 7.9 °F 1007.7 in NW 1.6 mph 11.3 mph 67 % 0.0 in
13:45 13.7 °F 7.0 °F 1007.7 in NW 3.2 mph 12.9 mph 64 % 0.0 in
14:00 14.2 °F 7.5 °F 1007.7 in NW 1.6 mph 8.0 mph 64 % 0.0 in
14:15 15.2 °F 8.0 °F 1007.3 in Calm   6.4 mph 62 % 0.0 in
14:30 14.3 °F 8.0 °F 1007.7 in NW 1.6 mph 12.9 mph 66 % 0.0 in
14:45 13.8 °F 7.5 °F 1007.3 in NW 4.8 mph 14.5 mph 66 % 0.0 in
15:00 13.9 °F 7.7 °F 1007.7 in NW 3.2 mph 14.5 mph 66 % 0.0 in
15:15 14.6 °F 7.8 °F 1007.3 in NW 4.8 mph 12.9 mph 64 % 0.0 in
15:30 14.6 °F 7.4 °F 1007.3 in NW 4.8 mph 16.1 mph 62 % 0.0 in
15:45 14.8 °F 7.6 °F 1007.0 in NW 1.6 mph 8.0 mph 62 % 0.0 in
16:00 15.1 °F 8.1 °F 1007.0 in NNW 1.6 mph 8.0 mph 63 % 0.0 in
16:15 15.0 °F 6.8 °F 1007.0 in NW 3.2 mph 11.3 mph 58 % 0.0 in
16:30 15.1 °F 7.1 °F 1006.7 in NW 1.6 mph 8.0 mph 59 % 0.0 in
16:45 15.2 °F 7.4 °F 1006.7 in NNW 1.6 mph 9.7 mph 60 % 0.0 in
17:00 15.1 °F 7.3 °F 1006.7 in NW 3.2 mph 9.7 mph 60 % 0.0 in
17:15 15.1 °F 7.2 °F 1006.7 in NW 1.6 mph 6.4 mph 59 % 0.0 in
17:30 14.9 °F 6.9 °F 1006.3 in NNW 3.2 mph 9.7 mph 59 % 0.0 in
17:45 14.8 °F 6.9 °F 1006.7 in NW 1.6 mph 11.3 mph 59 % 0.0 in
18:00 14.6 °F 7.4 °F 1006.3 in North 1.6 mph 6.4 mph 62 % 0.0 in
18:15 14.6 °F 7.4 °F 1006.3 in WNW 1.6 mph 8.0 mph 62 % 0.0 in
18:30 14.3 °F 7.6 °F 1006.7 in NW 1.6 mph 12.9 mph 64 % 0.0 in
18:45 13.8 °F 7.3 °F 1006.7 in NW 1.6 mph 9.7 mph 65 % 0.0 in
19:00 13.4 °F 7.0 °F 1006.7 in Calm   6.4 mph 65 % 0.0 in
19:15 13.1 °F 6.9 °F 1006.3 in Calm   3.2 mph 66 % 0.0 in
19:30 12.7 °F 7.2 °F 1006.3 in Calm   1.6 mph 69 % 0.0 in
19:45 12.2 °F 6.9 °F 1006.3 in Calm   1.6 mph 70 % 0.0 in
20:00 11.7 °F 7.0 °F 1006.3 in Calm     73 % 0.0 in
20:15 11.2 °F 6.5 °F 1006.3 in NW 1.6 mph 9.7 mph 73 % 0.0 in
20:30 10.7 °F 6.6 °F 1006.3 in Calm   4.8 mph 76 % 0.0 in
20:45 10.2 °F 6.5 °F 1006.3 in Calm     78 % 0.0 in
21:00 9.6 °F 6.3 °F 1006.3 in Calm   1.6 mph 80 % 0.0 in
21:15 9.1 °F 6.0 °F 1006.3 in Calm     81 % 0.0 in
21:30 8.6 °F 5.9 °F 1006.3 in Calm     83 % 0.0 in
21:45 8.1 °F 5.6 °F 1006.0 in Calm     84 % 0.0 in
22:00 7.7 °F 5.5 °F 1006.0 in Calm     86 % 0.0 in
22:15 7.2 °F 5.3 °F 1006.0 in Calm     88 % 0.0 in
22:30 6.7 °F 5.0 °F 1006.0 in Calm     89 % 0.0 in
22:45 6.3 °F 4.8 °F 1005.6 in Calm     90 % 0.0 in
23:00 6.1 °F 4.7 °F 1005.6 in Calm     91 % 0.0 in
23:15 5.8 °F 4.4 °F 1005.6 in Calm     91 % 0.0 in
23:30 5.6 °F 4.4 °F 1005.6 in Calm     92 % 0.0 in
23:45 5.4 °F 4.2 °F 1005.6 in Calm     92 % 0.0 in
Esan sääasema
Terveisin Weather Underground - 2.75 mb

Alkuperäinen skripti  Jim McMurry - jmcmurry@mwt.net Sovitettu myös templatelle  Wim van der Kuil - Leuven-Template.eu

Laitteet joita käytämme:

Sääasema
Davis VP2

Sääasemaohjelma
Cumulus

Sääaseman tietokone
Asus EeePC

Palveluntarjoaja
Suncomet

Davis VP2

Cumulus

Asus EeePC

Suncomet